Time;durP1;ratioP1;P1;durP2;ratioP2;P2;SDS_P1;SDS_P2;PMS_P1;PMS_P2;Temp;Humidity;BMP_temperature;BMP_pressure;BME280_temperature;BME280_humidity;BME280_pressure;Samples;Min_cycle;Max_cycle;Signal;HPM_P1;HPM_P2
2021/06/14 00:01:03;;;;;;;2.20;2.10;;;26.40;53.70;;;;;;5032027;28;20060;-39
2021/06/14 00:03:28;;;;;;;3.00;2.78;;;26.40;53.50;;;;;;5038373;28;20041;-36
2021/06/14 00:05:54;;;;;;;2.72;2.63;;;26.50;53.40;;;;;;5046335;28;20028;-36
2021/06/14 00:08:20;;;;;;;2.75;2.63;;;26.40;53.80;;;;;;5049182;28;20025;-39
2021/06/14 00:10:47;;;;;;;2.90;2.70;;;26.40;53.80;;;;;;5048819;28;20503;-36
2021/06/14 00:13:13;;;;;;;2.63;2.53;;;26.40;53.70;;;;;;5051482;28;20368;-36
2021/06/14 00:15:39;;;;;;;2.70;2.60;;;26.40;53.80;;;;;;5050982;28;20569;-36
2021/06/14 00:18:05;;;;;;;3.00;2.90;;;26.30;53.80;;;;;;5048837;28;20029;-36
2021/06/14 00:20:31;;;;;;;2.60;2.50;;;26.20;54.50;;;;;;5048548;28;20028;-36
2021/06/14 00:22:56;;;;;;;2.58;2.38;;;26.20;54.00;;;;;;5048814;28;20040;-36
2021/06/14 00:25:24;;;;;;;2.83;2.50;;;26.30;54.00;;;;;;5050001;28;20075;-37
2021/06/14 00:27:49;;;;;;;3.33;3.20;;;26.20;53.90;;;;;;5034671;28;20052;-36
2021/06/14 00:30:24;;;;;;;2.67;2.58;;;26.10;54.00;;;;;;5047998;28;20052;-37
2021/06/14 00:32:50;;;;;;;3.05;2.95;;;26.10;54.00;;;;;;5043281;28;20056;-41
2021/06/14 00:35:16;;;;;;;2.75;2.65;;;26.00;54.20;;;;;;5048434;28;20017;-40
2021/06/14 00:37:41;;;;;;;3.05;2.85;;;26.10;54.20;;;;;;5048268;28;20048;-40
2021/06/14 00:40:08;;;;;;;2.47;2.35;;;26.00;54.10;;;;;;5039114;28;20140;-41
2021/06/14 00:42:33;;;;;;;2.47;2.38;;;26.10;54.00;;;;;;5050415;28;20175;-40
2021/06/14 00:44:59;;;;;;;2.25;2.15;;;26.10;54.00;;;;;;5048383;28;20112;-41
2021/06/14 00:47:25;;;;;;;2.53;2.38;;;26.10;53.80;;;;;;5048165;28;20029;-40
2021/06/14 00:49:50;;;;;;;2.63;2.42;;;26.10;53.70;;;;;;5047652;28;20457;-40
2021/06/14 00:52:16;;;;;;;3.33;2.72;;;26.00;53.90;;;;;;5050754;28;20036;-40
2021/06/14 00:54:41;;;;;;;3.83;2.63;;;26.00;53.90;;;;;;5031377;28;20120;-40
2021/06/14 00:57:07;;;;;;;2.92;2.72;;;25.90;54.00;;;;;;5045572;28;20025;-37
2021/06/14 00:59:33;;;;;;;4.80;2.90;;;26.00;53.90;;;;;;5047551;28;20024;-38
2021/06/14 01:01:59;;;;;;;2.30;2.13;;;26.00;54.00;;;;;;5049544;28;20021;-37
2021/06/14 01:04:24;;;;;;;2.95;2.75;;;25.90;54.30;;;;;;5049963;28;20036;-38
2021/06/14 01:06:50;;;;;;;2.50;2.30;;;25.90;54.50;;;;;;5051492;28;20069;-39
2021/06/14 01:09:16;;;;;;;2.53;2.40;;;25.70;54.80;;;;;;5048391;28;20124;-38
2021/06/14 01:11:44;;;;;;;2.60;2.50;;;25.70;54.80;;;;;;5031011;28;20033;-38
2021/06/14 01:14:32;;;;;;;2.97;2.83;;;25.80;54.70;;;;;;5047739;28;20112;-39
2021/06/14 01:17:15;;;;;;;2.58;2.38;;;25.70;54.90;;;;;;5026185;28;20023;-38
2021/06/14 01:20:12;;;;;;;2.60;2.50;;;25.80;54.70;;;;;;5032903;28;20029;-35
2021/06/14 01:22:57;;;;;;;3.45;2.67;;;25.70;54.70;;;;;;4949308;29;20055;-35
2021/06/14 01:25:25;;;;;;;2.50;2.30;;;25.70;54.60;;;;;;4948961;29;20055;-35
2021/06/14 01:27:56;;;;;;;4.40;2.30;;;25.70;54.70;;;;;;4967245;28;20062;-35
2021/06/14 01:30:24;;;;;;;2.42;2.33;;;25.70;54.70;;;;;;4964920;28;20036;-35
2021/06/14 01:32:50;;;;;;;2.30;2.20;;;25.70;54.70;;;;;;4931875;29;20043;-36
2021/06/14 01:35:18;;;;;;;2.53;2.42;;;25.70;54.70;;;;;;4947057;28;20031;-35
2021/06/14 01:37:48;;;;;;;2.53;2.42;;;25.70;54.90;;;;;;4931673;29;20032;-36
2021/06/14 01:40:15;;;;;;;2.50;2.30;;;25.70;54.90;;;;;;4966023;28;20573;-35
2021/06/14 01:42:42;;;;;;;2.70;2.50;;;25.60;55.20;;;;;;4949627;29;20047;-36
2021/06/14 01:45:08;;;;;;;2.90;2.75;;;25.60;55.20;;;;;;4947332;28;20030;-34
2021/06/14 01:47:33;;;;;;;2.58;2.45;;;25.60;55.20;;;;;;4930613;29;20031;-36
2021/06/14 01:49:59;;;;;;;2.67;2.47;;;25.60;55.40;;;;;;4963843;28;20054;-35
2021/06/14 01:52:24;;;;;;;2.95;2.40;;;25.40;55.60;;;;;;4933183;28;20043;-40
2021/06/14 01:54:52;;;;;;;2.75;2.65;;;25.40;56.00;;;;;;4967429;28;20027;-40
2021/06/14 01:57:18;;;;;;;2.80;2.60;;;25.40;55.80;;;;;;4931141;29;20060;-40
2021/06/14 01:59:44;;;;;;;2.55;2.35;;;25.30;56.10;;;;;;5026415;28;20036;-39
2021/06/14 02:02:09;;;;;;;3.05;2.90;;;25.40;56.70;;;;;;5031907;28;20052;-39
2021/06/14 02:04:36;;;;;;;2.85;2.75;;;25.40;56.10;;;;;;5031203;28;20049;-38
2021/06/14 02:07:01;;;;;;;3.08;2.85;;;25.30;56.20;;;;;;5034835;28;20025;-40
2021/06/14 02:09:27;;;;;;;4.13;2.83;;;25.30;56.20;;;;;;5030403;28;20809;-39
2021/06/14 02:11:57;;;;;;;3.42;3.22;;;25.20;56.40;;;;;;5046590;28;20115;-39
2021/06/14 02:14:27;;;;;;;3.35;3.15;;;25.30;56.30;;;;;;5030262;28;20025;-38
2021/06/14 02:16:53;;;;;;;2.90;2.65;;;25.40;56.30;;;;;;5026001;28;20028;-35
2021/06/14 02:19:19;;;;;;;2.60;2.50;;;25.30;56.20;;;;;;5048050;28;20407;-35
2021/06/14 02:21:46;;;;;;;2.88;2.70;;;25.30;56.00;;;;;;5049991;28;20501;-36
2021/06/14 02:24:12;;;;;;;2.85;2.65;;;25.30;56.20;;;;;;5047730;28;20056;-36
2021/06/14 02:26:38;;;;;;;2.63;2.50;;;25.30;56.10;;;;;;5048309;28;20048;-34
2021/06/14 02:29:04;;;;;;;3.10;2.90;;;25.10;56.60;;;;;;5046362;28;20099;-35
2021/06/14 02:31:30;;;;;;;2.67;2.58;;;25.10;56.70;;;;;;5048057;28;20518;-35
2021/06/14 02:33:56;;;;;;;2.50;2.40;;;25.20;56.30;;;;;;5050991;28;20049;-35
2021/06/14 02:36:21;;;;;;;2.40;2.30;;;25.20;56.30;;;;;;5030256;28;20110;-35
2021/06/14 02:38:47;;;;;;;2.83;2.67;;;25.20;56.40;;;;;;5027961;28;20419;-35
2021/06/14 02:41:12;;;;;;;2.88;2.67;;;25.20;56.20;;;;;;5029873;28;20056;-35
2021/06/14 02:43:38;;;;;;;2.75;2.55;;;25.20;56.20;;;;;;5031659;28;20506;-35
2021/06/14 02:46:04;;;;;;;2.70;2.50;;;25.20;56.90;;;;;;5029280;28;20075;-35
2021/06/14 02:48:30;;;;;;;2.50;2.30;;;25.20;56.00;;;;;;5031553;28;20037;-35
2021/06/14 02:50:55;;;;;;;3.10;2.70;;;25.20;55.90;;;;;;5046343;28;20087;-35
2021/06/14 02:53:22;;;;;;;2.60;2.50;;;25.10;56.00;;;;;;5029693;28;20498;-35
2021/06/14 02:55:55;;;;;;;2.55;2.35;;;25.20;55.90;;;;;;5030017;28;20052;-34
2021/06/14 02:58:31;;;;;;;2.88;2.70;;;25.20;56.10;;;;;;5045310;28;20498;-35
2021/06/14 03:00:56;;;;;;;2.38;2.17;;;25.10;56.20;;;;;;5029327;28;20022;-34
2021/06/14 03:03:22;;;;;;;2.63;2.53;;;24.90;56.40;;;;;;5045178;28;20037;-34
2021/06/14 03:05:48;;;;;;;3.28;2.97;;;24.90;56.70;;;;;;5046852;28;20450;-33
2021/06/14 03:08:15;;;;;;;2.85;2.67;;;24.80;57.00;;;;;;5045624;28;20033;-35
2021/06/14 03:10:40;;;;;;;2.75;2.55;;;24.70;57.10;;;;;;5028921;28;20034;-35
2021/06/14 03:13:06;;;;;;;2.60;2.50;;;24.70;57.70;;;;;;5031934;28;20035;-36
2021/06/14 03:15:32;;;;;;;2.42;2.30;;;24.60;57.20;;;;;;5028658;28;20479;-35
2021/06/14 03:17:58;;;;;;;3.80;2.60;;;24.60;57.10;;;;;;5012415;28;20052;-35
2021/06/14 03:20:24;;;;;;;2.58;2.47;;;24.80;56.80;;;;;;5028939;28;20029;-35
2021/06/14 03:22:49;;;;;;;2.70;2.60;;;24.90;56.50;;;;;;5028898;28;20045;-35
2021/06/14 03:25:15;;;;;;;2.60;2.50;;;24.70;56.80;;;;;;5029517;28;20032;-34
2021/06/14 03:27:41;;;;;;;3.33;2.90;;;24.60;57.00;;;;;;5048470;28;20398;-35
2021/06/14 03:30:07;;;;;;;5.13;3.00;;;24.60;57.10;;;;;;5027447;28;20037;-35
2021/06/14 03:32:33;;;;;;;2.83;2.63;;;24.60;56.90;;;;;;5028178;28;20028;-34
2021/06/14 03:34:58;;;;;;;2.75;2.55;;;24.70;56.80;;;;;;5030641;28;20033;-35
2021/06/14 03:37:25;;;;;;;2.97;2.78;;;24.80;56.50;;;;;;5029424;28;20496;-35
2021/06/14 03:39:51;;;;;;;3.03;2.83;;;24.80;56.50;;;;;;5022227;28;20400;-35
2021/06/14 03:42:18;;;;;;;2.80;2.70;;;24.50;57.10;;;;;;5044369;28;20021;-36
2021/06/14 03:44:44;;;;;;;2.85;2.70;;;24.50;57.30;;;;;;5049189;28;20044;-34
2021/06/14 03:47:10;;;;;;;3.15;2.90;;;24.70;57.00;;;;;;5031641;28;20025;-34
2021/06/14 03:49:36;;;;;;;3.13;2.90;;;24.60;57.10;;;;;;5050068;28;20098;-36
2021/06/14 03:52:01;;;;;;;3.05;2.78;;;24.60;57.20;;;;;;5054340;28;20497;-35
2021/06/14 03:54:27;;;;;;;3.45;2.95;;;24.50;57.40;;;;;;5049002;28;20044;-34
2021/06/14 03:56:53;;;;;;;3.15;2.83;;;24.50;57.60;;;;;;5048703;28;20050;-36
2021/06/14 03:59:18;;;;;;;2.65;2.45;;;24.50;57.70;;;;;;5048179;28;20455;-35
2021/06/14 04:01:44;;;;;;;2.97;2.78;;;24.50;57.90;;;;;;5050555;28;20036;-37
2021/06/14 04:04:26;;;;;;;2.78;2.58;;;24.40;58.00;;;;;;5036066;28;20436;-36
2021/06/14 04:06:52;;;;;;;2.83;2.72;;;24.40;58.10;;;;;;5053159;28;20410;-36
2021/06/14 04:09:18;;;;;;;2.97;2.88;;;24.30;58.10;;;;;;5049134;28;20088;-36
2021/06/14 04:11:43;;;;;;;3.50;2.70;;;24.40;58.00;;;;;;5049521;28;20028;-36
2021/06/14 04:14:09;;;;;;;2.83;2.63;;;24.40;57.90;;;;;;5049936;28;20502;-36
2021/06/14 04:16:35;;;;;;;3.15;2.95;;;24.50;57.80;;;;;;5043124;28;20039;-36
2021/06/14 04:19:00;;;;;;;2.90;2.67;;;24.50;57.70;;;;;;5054336;28;20072;-35
2021/06/14 04:21:26;;;;;;;4.22;3.10;;;24.50;57.70;;;;;;5045205;28;20123;-41
2021/06/14 04:23:51;;;;;;;2.75;2.65;;;24.50;57.40;;;;;;5047812;28;20524;-41
2021/06/14 04:26:17;;;;;;;2.97;2.78;;;24.50;57.70;;;;;;5047849;28;20462;-42
2021/06/14 04:28:43;;;;;;;3.28;3.08;;;24.60;57.70;;;;;;5048303;28;20495;-43
2021/06/14 04:31:08;;;;;;;3.38;3.17;;;24.70;57.60;;;;;;5050683;28;20025;-40
2021/06/14 04:33:34;;;;;;;3.92;3.72;;;24.70;57.70;;;;;;5037602;28;20513;-40
2021/06/14 04:36:02;;;;;;;3.75;3.55;;;24.70;57.50;;;;;;5048340;28;20165;-41
2021/06/14 04:38:28;;;;;;;3.67;3.42;;;24.80;57.30;;;;;;5049421;28;20040;-39
2021/06/14 04:40:53;;;;;;;3.65;3.45;;;24.60;57.80;;;;;;5049934;28;20398;-41
2021/06/14 04:43:19;;;;;;;3.45;3.25;;;24.70;57.60;;;;;;5049407;28;20033;-41
2021/06/14 04:45:45;;;;;;;3.53;3.33;;;24.70;57.70;;;;;;5050909;28;20029;-41
2021/06/14 04:48:10;;;;;;;4.30;3.90;;;24.70;57.70;;;;;;5049138;28;20037;-41
2021/06/14 04:50:36;;;;;;;4.00;3.70;;;24.70;57.90;;;;;;5049850;28;20174;-40
2021/06/14 04:53:02;;;;;;;4.00;3.70;;;24.80;57.70;;;;;;5049973;28;20075;-41
2021/06/14 04:55:27;;;;;;;3.60;3.40;;;24.80;57.50;;;;;;5047825;28;20051;-41
2021/06/14 04:57:53;;;;;;;3.92;3.63;;;24.70;58.10;;;;;;5052521;28;20047;-40
2021/06/14 05:00:19;;;;;;;3.92;3.40;;;24.60;57.80;;;;;;5048766;28;20513;-38
2021/06/14 05:02:45;;;;;;;6.30;3.50;;;24.80;57.40;;;;;;5047140;28;20056;-41
2021/06/14 05:05:11;;;;;;;4.07;3.78;;;24.70;57.60;;;;;;5045075;28;20025;-41
2021/06/14 05:07:37;;;;;;;3.60;3.30;;;24.80;57.50;;;;;;5043122;28;20543;-42
2021/06/14 05:10:03;;;;;;;3.63;3.28;;;24.80;57.40;;;;;;5046652;28;20025;-40
2021/06/14 05:12:28;;;;;;;7.32;3.80;;;24.70;57.60;;;;;;5043997;28;20047;-39
2021/06/14 05:14:54;;;;;;;4.40;3.35;;;24.60;57.90;;;;;;5046351;28;20028;-40
2021/06/14 05:17:20;;;;;;;8.30;3.00;;;24.50;58.60;;;;;;5046363;28;20513;-40
2021/06/14 05:19:45;;;;;;;5.32;3.42;;;24.40;58.40;;;;;;5048508;28;20033;-41
2021/06/14 05:22:11;;;;;;;3.35;3.05;;;24.30;58.80;;;;;;5047496;28;20419;-41
2021/06/14 05:24:37;;;;;;;3.65;3.05;;;24.20;59.10;;;;;;5049012;28;20395;-40
2021/06/14 05:27:03;;;;;;;5.78;3.47;;;24.20;59.00;;;;;;5043673;28;20518;-41
2021/06/14 05:29:29;;;;;;;3.17;2.97;;;24.30;58.70;;;;;;5045621;28;20029;-35
2021/06/14 05:31:54;;;;;;;3.70;3.40;;;24.50;58.40;;;;;;5047119;28;20032;-40
2021/06/14 05:34:20;;;;;;;6.07;3.03;;;24.60;58.20;;;;;;5045935;28;20044;-40
2021/06/14 05:36:46;;;;;;;5.97;3.15;;;24.50;58.40;;;;;;5051910;28;20426;-40
2021/06/14 05:39:11;;;;;;;3.60;3.10;;;24.40;58.60;;;;;;5042329;28;20051;-41
2021/06/14 05:41:37;;;;;;;3.08;2.80;;;24.40;58.70;;;;;;5037801;28;20064;-41
2021/06/14 05:44:02;;;;;;;5.03;2.88;;;24.20;59.00;;;;;;5048158;28;20494;-40
2021/06/14 05:46:28;;;;;;;7.70;2.90;;;24.40;58.80;;;;;;5047462;28;20076;-39
2021/06/14 05:48:54;;;;;;;5.47;3.45;;;24.30;59.30;;;;;;4699537;28;9999992;-40
2021/06/14 05:51:19;;;;;;;3.67;3.38;;;24.20;59.60;;;;;;5044112;28;20529;-39
2021/06/14 05:53:48;;;;;;;3.08;2.80;;;24.20;59.80;;;;;;5027544;28;20849;-40
2021/06/14 05:56:16;;;;;;;2.97;2.78;;;24.20;59.60;;;;;;5044417;28;20112;-40
2021/06/14 05:58:42;;;;;;;3.00;2.70;;;24.30;59.40;;;;;;5044252;28;20041;-40
2021/06/14 06:01:08;;;;;;;3.70;3.10;;;24.30;59.30;;;;;;5030809;28;20036;-40
2021/06/14 06:03:33;;;;;;;6.13;2.85;;;24.20;59.20;;;;;;5045893;28;20406;-39
2021/06/14 06:05:59;;;;;;;7.18;2.85;;;24.40;58.30;;;;;;5048104;28;20028;-40
2021/06/14 06:08:25;;;;;;;6.28;3.03;;;24.40;57.90;;;;;;5046240;28;20033;-40
2021/06/14 06:10:50;;;;;;;3.17;2.50;;;24.60;57.20;;;;;;5047528;28;20087;-40
2021/06/14 06:13:16;;;;;;;3.80;3.10;;;24.70;57.00;;;;;;5048087;28;20045;-40
2021/06/14 06:15:42;;;;;;;4.80;2.70;;;24.50;56.90;;;;;;5047951;28;20151;-40
2021/06/14 06:18:07;;;;;;;3.05;2.67;;;24.30;57.10;;;;;;5041273;28;20489;-41
2021/06/14 06:20:33;;;;;;;3.70;2.60;;;24.30;56.90;;;;;;5038935;28;20171;-40
2021/06/14 06:22:58;;;;;;;5.40;2.50;;;24.40;56.80;;;;;;5014689;28;20068;-37
2021/06/14 06:25:25;;;;;;;4.35;2.70;;;24.50;56.70;;;;;;5036635;28;20542;-36
2021/06/14 06:27:50;;;;;;;2.75;2.30;;;24.60;56.40;;;;;;5046618;28;20072;-36
2021/06/14 06:30:19;;;;;;;2.60;2.40;;;24.70;56.30;;;;;;5031274;28;20499;-37
2021/06/14 06:32:44;;;;;;;2.85;2.60;;;24.70;56.50;;;;;;5034154;28;20029;-36
2021/06/14 06:35:11;;;;;;;3.30;2.28;;;24.80;55.70;;;;;;5044205;28;20033;-36
2021/06/14 06:37:37;;;;;;;4.30;2.55;;;24.90;55.40;;;;;;5040338;28;20546;-36
2021/06/14 06:40:05;;;;;;;2.80;2.60;;;24.90;55.20;;;;;;5047824;28;20510;-36
2021/06/14 06:42:30;;;;;;;2.40;2.20;;;24.90;55.30;;;;;;5044153;28;20048;-40
2021/06/14 06:44:56;;;;;;;2.40;2.30;;;24.70;55.70;;;;;;5045803;28;20033;-43
2021/06/14 06:47:21;;;;;;;3.28;2.70;;;24.60;55.90;;;;;;5046126;28;20025;-43
2021/06/14 06:49:47;;;;;;;2.30;2.10;;;24.60;56.10;;;;;;5044719;28;20423;-41
2021/06/14 06:52:13;;;;;;;2.60;2.40;;;24.60;55.90;;;;;;5033521;28;20132;-42
2021/06/14 06:54:38;;;;;;;3.15;2.47;;;24.70;55.70;;;;;;4992355;28;20046;-41
2021/06/14 06:57:04;;;;;;;5.20;2.15;;;24.60;56.10;;;;;;4997753;28;20073;-42
2021/06/14 06:59:30;;;;;;;3.67;2.60;;;24.60;56.10;;;;;;5008927;28;20082;-42
2021/06/14 07:01:55;;;;;;;3.95;2.33;;;24.60;56.10;;;;;;4990219;28;20043;-41
2021/06/14 07:04:21;;;;;;;2.97;2.60;;;24.70;55.60;;;;;;4999352;28;20049;-42
2021/06/14 07:06:47;;;;;;;2.63;2.30;;;24.80;55.40;;;;;;5004318;28;20104;-40
2021/06/14 07:09:12;;;;;;;2.58;2.38;;;24.80;55.70;;;;;;5002829;28;20129;-42
2021/06/14 07:11:38;;;;;;;2.80;2.60;;;24.70;55.80;;;;;;4967090;28;20038;-31
2021/06/14 07:14:04;;;;;;;2.72;2.35;;;24.80;55.70;;;;;;4978410;28;20034;-42
2021/06/14 07:16:29;;;;;;;4.40;2.58;;;24.80;55.70;;;;;;5005689;28;20133;-41
2021/06/14 07:18:55;;;;;;;2.20;2.10;;;24.70;55.80;;;;;;5022527;28;20161;-41
2021/06/14 07:21:21;;;;;;;2.33;2.10;;;24.70;55.40;;;;;;5008447;28;20045;-41
2021/06/14 07:23:47;;;;;;;2.63;2.30;;;24.60;55.10;;;;;;5005284;28;20507;-41
2021/06/14 07:26:13;;;;;;;2.72;2.25;;;24.80;54.80;;;;;;4988982;28;20054;-41
2021/06/14 07:28:38;;;;;;;7.45;2.65;;;24.60;54.90;;;;;;5009006;28;20407;-37
2021/06/14 07:31:04;;;;;;;1.95;1.85;;;24.40;55.50;;;;;;5005665;28;20040;-38
2021/06/14 07:33:30;;;;;;;3.17;2.22;;;24.50;55.40;;;;;;4994744;28;20042;-37
2021/06/14 07:35:56;;;;;;;2.70;2.50;;;24.60;55.00;;;;;;5004539;28;20050;-37
2021/06/14 07:38:22;;;;;;;2.03;1.92;;;24.60;55.90;;;;;;5009425;28;20168;-37
2021/06/14 07:40:47;;;;;;;3.20;2.05;;;24.50;55.60;;;;;;5007856;28;20046;-36
2021/06/14 07:43:14;;;;;;;2.50;2.30;;;24.30;55.90;;;;;;5010432;28;20042;-33
2021/06/14 07:45:41;;;;;;;2.47;2.13;;;24.20;56.00;;;;;;5010869;28;20496;-33
2021/06/14 07:48:07;;;;;;;2.33;2.13;;;24.40;55.90;;;;;;5000002;28;20052;-38
2021/06/14 07:50:33;;;;;;;2.92;2.30;;;24.60;55.50;;;;;;4987004;28;20042;-38
2021/06/14 07:52:58;;;;;;;2.42;2.22;;;24.70;55.10;;;;;;4985662;28;20033;-38
2021/06/14 07:55:24;;;;;;;2.35;2.15;;;24.70;55.10;;;;;;5001915;28;20054;-35
2021/06/14 07:57:50;;;;;;;2.20;2.00;;;24.70;55.30;;;;;;5012602;28;20050;-34
2021/06/14 08:00:16;;;;;;;2.00;1.75;;;24.80;55.20;;;;;;5020011;28;20054;-36
2021/06/14 08:02:41;;;;;;;2.20;2.00;;;24.70;55.60;;;;;;5008580;28;20081;-37
2021/06/14 08:05:11;;;;;;;2.30;2.10;;;24.70;55.50;;;;;;5006998;28;20076;-39
2021/06/14 08:07:36;;;;;;;1.90;1.80;;;24.80;55.40;;;;;;5007811;28;20032;-41
2021/06/14 08:10:05;;;;;;;2.55;1.90;;;24.90;55.10;;;;;;5005218;28;20105;-44
2021/06/14 08:12:32;;;;;;;2.25;2.05;;;25.00;55.10;;;;;;5005410;28;20076;-41
2021/06/14 08:14:57;;;;;;;2.55;2.30;;;24.90;55.10;;;;;;5000828;28;20050;-40
2021/06/14 08:17:23;;;;;;;2.45;2.25;;;25.00;55.00;;;;;;5007730;28;20115;-41
2021/06/14 08:19:53;;;;;;;3.92;2.05;;;25.00;55.10;;;;;;5004491;28;20044;-44
2021/06/14 08:25:10;;;;;;;2.17;2.08;;;25.30;54.60;;;;;;5008034;28;20034;-41
2021/06/14 08:27:37;;;;;;;2.70;2.35;;;25.40;54.40;;;;;;4980657;28;20080;-41
2021/06/14 08:30:05;;;;;;;3.13;2.40;;;25.40;54.60;;;;;;4999681;28;20479;-41
2021/06/14 08:32:31;;;;;;;2.40;2.20;;;25.40;54.40;;;;;;5004922;28;20034;-45
2021/06/14 08:34:56;;;;;;;2.30;2.10;;;25.50;54.30;;;;;;4995229;28;20496;-42
2021/06/14 08:37:22;;;;;;;1.85;1.75;;;25.70;54.10;;;;;;5008401;28;20122;-45
2021/06/14 08:39:47;;;;;;;4.35;1.95;;;25.60;54.10;;;;;;5006545;28;20116;-43
2021/06/14 08:42:13;;;;;;;2.42;2.22;;;25.70;54.00;;;;;;5007994;28;20049;-44
2021/06/14 08:44:39;;;;;;;2.15;2.05;;;25.70;53.70;;;;;;5003345;28;20048;-43
2021/06/14 08:47:05;;;;;;;4.05;2.20;;;25.90;53.50;;;;;;4989927;28;20432;-42
2021/06/14 08:49:32;;;;;;;2.30;2.10;;;25.90;53.40;;;;;;5007148;28;20134;-41
2021/06/14 08:51:58;;;;;;;2.53;2.15;;;25.90;53.20;;;;;;4976871;28;20042;-41
2021/06/14 08:54:24;;;;;;;2.10;1.90;;;25.90;52.90;;;;;;4987255;28;20077;-43
2021/06/14 08:56:50;;;;;;;1.95;1.77;;;26.00;52.70;;;;;;4989021;28;20077;-41
2021/06/14 08:59:15;;;;;;;1.80;1.70;;;26.00;52.60;;;;;;5005535;28;20392;-42
2021/06/14 09:01:41;;;;;;;3.05;2.13;;;26.00;52.80;;;;;;5006343;28;20053;-43
2021/06/14 09:04:06;;;;;;;2.40;2.30;;;26.00;53.20;;;;;;5007890;28;20045;-41
2021/06/14 09:06:32;;;;;;;6.53;1.98;;;25.90;53.70;;;;;;5005981;28;20045;-42
2021/06/14 09:08:59;;;;;;;4.85;2.03;;;25.80;55.00;;;;;;5003702;28;20048;-43
2021/06/14 09:11:25;;;;;;;9.38;2.20;;;25.80;54.80;;;;;;5002061;28;20104;-44
2021/06/14 09:13:50;;;;;;;4.68;2.38;;;26.00;55.20;;;;;;4995370;28;20042;-45
2021/06/14 09:16:16;;;;;;;1.88;1.77;;;26.00;54.00;;;;;;4993425;28;20048;-41
2021/06/14 09:18:43;;;;;;;2.22;2.05;;;26.10;54.00;;;;;;4995368;28;20133;-42
2021/06/14 09:21:13;;;;;;;6.78;1.80;;;26.10;53.90;;;;;;4996456;28;20084;-44
2021/06/14 09:23:48;;;;;;;2.60;1.92;;;26.10;53.70;;;;;;5008715;28;20070;-42
2021/06/14 09:26:33;;;;;;;2.13;1.92;;;26.00;53.90;;;;;;4993177;28;20045;-44
2021/06/14 09:29:02;;;;;;;2.33;2.13;;;25.90;54.00;;;;;;4997519;28;20046;-44
2021/06/14 09:31:29;;;;;;;2.40;2.20;;;26.10;53.40;;;;;;5006700;28;20081;-42
2021/06/14 09:33:55;;;;;;;2.33;2.15;;;26.20;53.00;;;;;;5010383;28;20034;-44
2021/06/14 09:36:21;;;;;;;3.00;1.83;;;26.10;53.40;;;;;;5003477;28;20428;-40
2021/06/14 09:38:47;;;;;;;2.00;1.90;;;26.20;53.40;;;;;;5002136;28;20458;-41
2021/06/14 09:41:14;;;;;;;2.05;1.83;;;26.20;53.40;;;;;;5020296;28;20038;-49
2021/06/14 09:43:44;;;;;;;6.53;2.60;;;26.20;53.40;;;;;;4992818;28;20527;-41
2021/06/14 09:46:27;;;;;;;7.93;2.97;;;26.30;53.00;;;;;;5028871;28;20052;-40
2021/06/14 09:48:53;;;;;;;10.10;3.28;;;26.10;53.40;;;;;;4994997;28;20065;-39
2021/06/14 09:51:19;;;;;;;6.68;2.88;;;26.20;53.10;;;;;;4988701;28;20058;-44
2021/06/14 09:53:52;;;;;;;4.15;2.65;;;26.40;52.70;;;;;;4992745;28;20504;-38
2021/06/14 09:56:26;;;;;;;5.88;3.30;;;26.40;53.10;;;;;;5004627;28;20044;-43
2021/06/14 09:58:52;;;;;;;;;;;26.50;52.70;;;;;;5020234;28;20070;-42
2021/06/14 10:01:22;;;;;;;4.32;2.95;;;26.60;52.60;;;;;;4996562;28;19918;-41
2021/06/14 10:03:48;;;;;;;4.63;3.70;;;26.60;52.60;;;;;;5002591;28;20104;-42
2021/06/14 10:06:14;;;;;;;6.75;2.90;;;26.60;52.70;;;;;;4987426;28;20500;-41
2021/06/14 10:08:43;;;;;;;4.78;3.10;;;26.60;52.80;;;;;;4990961;28;20046;-44
2021/06/14 10:11:11;;;;;;;4.25;2.70;;;26.60;52.60;;;;;;4996237;28;20045;-42
2021/06/14 10:13:41;;;;;;;3.95;2.95;;;26.60;52.40;;;;;;4986440;28;20501;-41
2021/06/14 10:16:08;;;;;;;4.60;3.35;;;26.60;52.50;;;;;;5001428;28;20046;-35
2021/06/14 10:18:42;;;;;;;3.22;2.92;;;26.60;52.50;;;;;;4986240;28;20046;-38
2021/06/14 10:21:24;;;;;;;2.90;2.70;;;26.60;52.30;;;;;;4989073;28;20140;-38
2021/06/14 10:23:55;;;;;;;2.80;2.60;;;26.50;52.70;;;;;;5000000;28;20050;-39
2021/06/14 10:26:21;;;;;;;3.22;2.75;;;26.60;52.50;;;;;;4990607;28;20128;-37
2021/06/14 10:28:47;;;;;;;2.85;2.55;;;26.60;52.30;;;;;;5006044;28;20480;-37
2021/06/14 10:31:13;;;;;;;3.55;2.88;;;26.70;52.40;;;;;;5006837;28;20092;-39
2021/06/14 10:33:38;;;;;;;2.80;2.60;;;26.70;52.80;;;;;;5015862;28;20464;-37
2021/06/14 10:36:05;;;;;;;2.70;2.50;;;26.80;52.10;;;;;;5002462;28;20041;-37
2021/06/14 10:38:31;;;;;;;4.10;2.50;;;26.80;52.40;;;;;;5000516;28;20042;-40
2021/06/14 10:40:56;;;;;;;2.47;2.13;;;26.80;52.30;;;;;;4976858;28;20069;-40
2021/06/14 10:43:26;;;;;;;2.75;2.50;;;26.80;52.70;;;;;;5002187;28;20519;-39
2021/06/14 10:45:52;;;;;;;2.80;2.60;;;26.80;52.00;;;;;;5001801;28;20489;-38
2021/06/14 10:48:23;;;;;;;2.85;2.67;;;26.80;52.00;;;;;;4984355;28;20050;-35
2021/06/14 10:50:49;;;;;;;2.85;2.67;;;26.80;52.00;;;;;;4626282;28;10000483;-43
2021/06/14 10:53:32;;;;;;;2.80;2.60;;;26.80;52.10;;;;;;4999483;28;20128;-42
2021/06/14 10:56:01;;;;;;;3.15;2.83;;;26.80;51.90;;;;;;4997347;28;20078;-43
2021/06/14 10:58:29;;;;;;;3.35;3.05;;;26.80;51.90;;;;;;5018963;28;20132;-40
2021/06/14 11:01:16;;;;;;;3.15;2.90;;;26.90;52.00;;;;;;5003031;28;20045;-43
2021/06/14 11:03:46;;;;;;;2.95;2.55;;;26.80;52.00;;;;;;4995410;28;20054;-41
2021/06/14 11:06:23;;;;;;;3.00;2.63;;;26.70;52.70;;;;;;5001299;28;20064;-41
2021/06/14 11:09:21;;;;;;;2.80;2.60;;;26.70;52.20;;;;;;5007445;28;20107;-38
2021/06/14 11:11:56;;;;;;;2.60;2.40;;;26.90;52.20;;;;;;5012321;28;20609;-38
2021/06/14 11:14:38;;;;;;;2.75;2.65;;;26.80;52.40;;;;;;5020688;28;20395;-41
2021/06/14 11:17:23;;;;;;;2.97;2.53;;;26.60;52.90;;;;;;5012154;28;20062;-33
2021/06/14 11:20:01;;;;;;;2.60;2.40;;;26.80;52.70;;;;;;4996575;28;20518;-39
2021/06/14 11:22:34;;;;;;;2.75;2.60;;;26.80;53.00;;;;;;4994605;28;20055;-39
2021/06/14 11:25:00;;;;;;;4.60;2.90;;;26.90;52.50;;;;;;5005247;28;20046;-41
2021/06/14 11:27:37;;;;;;;3.50;2.50;;;26.70;52.90;;;;;;5000828;28;20280;-41
2021/06/14 11:30:11;;;;;;;2.60;2.40;;;26.60;53.80;;;;;;5004084;28;20065;-41
2021/06/14 11:32:38;;;;;;;4.97;2.47;;;26.80;53.10;;;;;;5021029;28;20128;-39
2021/06/14 11:35:04;;;;;;;3.45;2.53;;;26.70;53.40;;;;;;5019294;28;20045;-38
2021/06/14 11:37:43;;;;;;;2.83;2.60;;;26.80;53.20;;;;;;5022882;28;20061;-37
2021/06/14 11:40:10;;;;;;;9.02;2.42;;;26.70;53.30;;;;;;5004399;28;20052;-39
2021/06/14 11:42:49;;;;;;;4.20;2.63;;;26.50;53.70;;;;;;5026388;28;20061;-40
2021/06/14 11:45:24;;;;;;;4.00;3.10;;;26.40;53.80;;;;;;4996740;28;20125;-39
2021/06/14 11:47:51;;;;;;;3.00;2.50;;;26.50;53.60;;;;;;5019289;28;21434;-39
2021/06/14 11:50:21;;;;;;;3.45;2.47;;;26.50;53.80;;;;;;4999481;28;20057;-36
2021/06/14 11:53:02;;;;;;;3.50;2.97;;;26.30;55.10;;;;;;4988419;28;20038;-38
2021/06/14 11:55:29;;;;;;;3.38;2.90;;;26.40;54.80;;;;;;4997114;28;20064;-41
2021/06/14 11:57:56;;;;;;;4.57;3.03;;;26.50;54.60;;;;;;5014192;28;20077;-38
2021/06/14 12:00:42;;;;;;;2.80;2.70;;;26.60;54.60;;;;;;5008678;28;20073;-38
2021/06/14 12:03:19;;;;;;;3.00;2.70;;;26.60;54.70;;;;;;4993835;28;20054;-41
2021/06/14 12:05:45;;;;;;;2.90;2.70;;;26.70;54.60;;;;;;5004505;28;20057;-39
2021/06/14 12:08:11;;;;;;;3.25;2.80;;;26.70;55.20;;;;;;4990886;28;20046;-39
2021/06/14 12:10:36;;;;;;;5.32;3.10;;;26.80;54.70;;;;;;5024527;28;20041;-39
2021/06/14 12:13:09;;;;;;;3.17;2.50;;;26.70;54.80;;;;;;5008481;28;20449;-40
2021/06/14 12:15:35;;;;;;;5.43;2.70;;;26.70;54.90;;;;;;5016612;28;20041;-39
2021/06/14 12:18:01;;;;;;;2.40;2.10;;;26.80;54.90;;;;;;4986449;28;20104;-38
2021/06/14 12:20:28;;;;;;;2.63;2.22;;;26.90;54.80;;;;;;4992887;28;20034;-34
2021/06/14 12:23:05;;;;;;;2.38;2.17;;;26.90;54.80;;;;;;4997511;28;20495;-41
2021/06/14 12:25:31;;;;;;;3.13;2.75;;;26.80;55.00;;;;;;5008040;28;20042;-38
2021/06/14 12:28:01;;;;;;;2.00;1.90;;;26.90;54.80;;;;;;4989270;28;20121;-39
2021/06/14 12:30:27;;;;;;;3.80;2.28;;;26.90;54.80;;;;;;5004317;28;20049;-43
2021/06/14 12:32:54;;;;;;;3.95;2.50;;;26.90;54.90;;;;;;5008118;28;20539;-44
2021/06/14 12:35:20;;;;;;;2.55;2.40;;;26.90;55.10;;;;;;4989679;28;20117;-45
2021/06/14 12:37:45;;;;;;;2.88;2.65;;;26.80;55.40;;;;;;4988303;28;20118;-45
2021/06/14 12:40:13;;;;;;;2.35;2.25;;;26.80;55.40;;;;;;5009031;28;20402;-43
2021/06/14 12:42:39;;;;;;;2.20;2.10;;;26.90;55.10;;;;;;4995789;28;20540;-45
2021/06/14 12:45:08;;;;;;;2.47;2.22;;;26.80;55.10;;;;;;4648853;28;10000186;-42
2021/06/14 12:47:34;;;;;;;2.53;2.05;;;26.80;55.70;;;;;;4987860;28;20105;-43
2021/06/14 12:50:00;;;;;;;3.95;2.22;;;26.70;55.80;;;;;;5004655;28;20050;-40
2021/06/14 12:52:29;;;;;;;2.22;1.80;;;26.70;55.70;;;;;;4991834;28;20061;-42